sensor_id;sensor_type;location;lat;lon;timestamp;temperature;humidity
57108;DHT22;42987;52.916;6.542;2023-04-19T00:01:56;8.60;99.90
57108;DHT22;42987;52.916;6.542;2023-04-19T00:04:22;8.50;99.90
57108;DHT22;42987;52.916;6.542;2023-04-19T00:06:48;8.50;99.90
57108;DHT22;42987;52.916;6.542;2023-04-19T00:09:13;8.50;99.90
57108;DHT22;42987;52.916;6.542;2023-04-19T00:11:39;8.50;99.90
57108;DHT22;42987;52.916;6.542;2023-04-19T00:14:08;8.40;99.90
57108;DHT22;42987;52.916;6.542;2023-04-19T00:16:34;8.40;99.90
57108;DHT22;42987;52.916;6.542;2023-04-19T00:19:00;8.40;99.90
57108;DHT22;42987;52.916;6.542;2023-04-19T00:21:26;8.40;99.90
57108;DHT22;42987;52.916;6.542;2023-04-19T00:23:52;8.30;99.90
57108;DHT22;42987;52.916;6.542;2023-04-19T00:26:18;8.20;99.90
57108;DHT22;42987;52.916;6.542;2023-04-19T00:28:44;8.20;99.90
57108;DHT22;42987;52.916;6.542;2023-04-19T00:31:10;8.10;99.90
57108;DHT22;42987;52.916;6.542;2023-04-19T00:33:36;8.10;99.90
57108;DHT22;42987;52.916;6.542;2023-04-19T00:36:02;8.10;99.90
57108;DHT22;42987;52.916;6.542;2023-04-19T00:38:28;8.10;99.90
57108;DHT22;42987;52.916;6.542;2023-04-19T00:40:57;8.10;99.90
57108;DHT22;42987;52.916;6.542;2023-04-19T00:43:24;8.10;99.90
57108;DHT22;42987;52.916;6.542;2023-04-19T00:45:50;8.10;99.90
57108;DHT22;42987;52.916;6.542;2023-04-19T00:48:16;8.10;99.90
57108;DHT22;42987;52.916;6.542;2023-04-19T00:50:43;8.10;99.90
57108;DHT22;42987;52.916;6.542;2023-04-19T00:53:09;8.00;99.90
57108;DHT22;42987;52.916;6.542;2023-04-19T00:55:37;8.00;99.90
57108;DHT22;42987;52.916;6.542;2023-04-19T00:58:05;8.10;99.90
57108;DHT22;42987;52.916;6.542;2023-04-19T01:00:31;8.10;99.90
57108;DHT22;42987;52.916;6.542;2023-04-19T01:02:57;8.00;99.90
57108;DHT22;42987;52.916;6.542;2023-04-19T01:05:22;8.00;99.90
57108;DHT22;42987;52.916;6.542;2023-04-19T01:07:51;8.00;99.90
57108;DHT22;42987;52.916;6.542;2023-04-19T01:10:17;8.00;99.90
57108;DHT22;42987;52.916;6.542;2023-04-19T01:12:43;7.90;99.90
57108;DHT22;42987;52.916;6.542;2023-04-19T01:15:09;7.90;99.90
57108;DHT22;42987;52.916;6.542;2023-04-19T01:17:35;7.90;99.90
57108;DHT22;42987;52.916;6.542;2023-04-19T01:20:03;7.90;99.90
57108;DHT22;42987;52.916;6.542;2023-04-19T01:22:33;7.90;99.90
57108;DHT22;42987;52.916;6.542;2023-04-19T01:24:59;7.90;99.90
57108;DHT22;42987;52.916;6.542;2023-04-19T01:27:25;7.90;99.90
57108;DHT22;42987;52.916;6.542;2023-04-19T01:29:51;7.80;99.90
57108;DHT22;42987;52.916;6.542;2023-04-19T01:32:17;7.80;99.90
57108;DHT22;42987;52.916;6.542;2023-04-19T01:34:42;7.80;99.90
57108;DHT22;42987;52.916;6.542;2023-04-19T01:37:08;7.80;99.90
57108;DHT22;42987;52.916;6.542;2023-04-19T01:39:34;7.70;99.90
57108;DHT22;42987;52.916;6.542;2023-04-19T01:42:00;7.70;99.90
57108;DHT22;42987;52.916;6.542;2023-04-19T01:44:30;7.80;99.90
57108;DHT22;42987;52.916;6.542;2023-04-19T01:46:56;7.80;99.90
57108;DHT22;42987;52.916;6.542;2023-04-19T01:49:25;7.70;99.90
57108;DHT22;42987;52.916;6.542;2023-04-19T01:51:50;7.70;99.90
57108;DHT22;42987;52.916;6.542;2023-04-19T01:54:16;7.60;99.90
57108;DHT22;42987;52.916;6.542;2023-04-19T01:56:42;7.60;99.90
57108;DHT22;42987;52.916;6.542;2023-04-19T01:59:08;7.50;99.90
57108;DHT22;42987;52.916;6.542;2023-04-19T02:01:33;7.50;99.90
57108;DHT22;42987;52.916;6.542;2023-04-19T02:04:00;7.50;99.90
57108;DHT22;42987;52.916;6.542;2023-04-19T02:06:26;7.50;99.90
57108;DHT22;42987;52.916;6.542;2023-04-19T02:08:52;7.50;99.90
57108;DHT22;42987;52.916;6.542;2023-04-19T02:11:18;7.40;99.90
57108;DHT22;42987;52.916;6.542;2023-04-19T02:13:44;7.40;99.90
57108;DHT22;42987;52.916;6.542;2023-04-19T02:16:10;7.40;99.90
57108;DHT22;42987;52.916;6.542;2023-04-19T02:18:36;7.30;99.90
57108;DHT22;42987;52.916;6.542;2023-04-19T02:21:03;7.30;99.90
57108;DHT22;42987;52.916;6.542;2023-04-19T02:23:29;7.20;99.90
57108;DHT22;42987;52.916;6.542;2023-04-19T02:25:55;7.20;99.90
57108;DHT22;42987;52.916;6.542;2023-04-19T02:28:21;7.10;99.90
57108;DHT22;42987;52.916;6.542;2023-04-19T02:30:47;7.20;99.90
57108;DHT22;42987;52.916;6.542;2023-04-19T02:33:13;7.10;99.90
57108;DHT22;42987;52.916;6.542;2023-04-19T02:35:39;7.00;99.90
57108;DHT22;42987;52.916;6.542;2023-04-19T02:38:05;7.10;99.90
57108;DHT22;42987;52.916;6.542;2023-04-19T02:40:31;7.10;99.90
57108;DHT22;42987;52.916;6.542;2023-04-19T02:42:57;7.00;99.90
57108;DHT22;42987;52.916;6.542;2023-04-19T02:45:22;7.00;99.90
57108;DHT22;42987;52.916;6.542;2023-04-19T02:47:48;7.00;99.90
57108;DHT22;42987;52.916;6.542;2023-04-19T02:50:16;6.90;99.90
57108;DHT22;42987;52.916;6.542;2023-04-19T02:52:42;6.90;99.90
57108;DHT22;42987;52.916;6.542;2023-04-19T02:55:11;6.80;99.90
57108;DHT22;42987;52.916;6.542;2023-04-19T02:57:37;6.80;99.90
57108;DHT22;42987;52.916;6.542;2023-04-19T03:00:03;6.80;99.90
57108;DHT22;42987;52.916;6.542;2023-04-19T03:02:30;6.70;99.90
57108;DHT22;42987;52.916;6.542;2023-04-19T03:04:56;6.70;99.90
57108;DHT22;42987;52.916;6.542;2023-04-19T03:07:22;6.70;99.90
57108;DHT22;42987;52.916;6.542;2023-04-19T03:09:48;6.70;99.90
57108;DHT22;42987;52.916;6.542;2023-04-19T03:12:13;6.70;99.90
57108;DHT22;42987;52.916;6.542;2023-04-19T03:14:39;6.60;99.90
57108;DHT22;42987;52.916;6.542;2023-04-19T03:17:05;6.60;99.90
57108;DHT22;42987;52.916;6.542;2023-04-19T03:19:31;6.60;99.90
57108;DHT22;42987;52.916;6.542;2023-04-19T03:21:56;6.60;99.90
57108;DHT22;42987;52.916;6.542;2023-04-19T03:24:29;6.60;99.90
57108;DHT22;42987;52.916;6.542;2023-04-19T03:26:55;6.50;99.90
57108;DHT22;42987;52.916;6.542;2023-04-19T03:29:21;6.50;99.90
57108;DHT22;42987;52.916;6.542;2023-04-19T03:31:47;6.50;99.90
57108;DHT22;42987;52.916;6.542;2023-04-19T03:34:13;6.50;99.90
57108;DHT22;42987;52.916;6.542;2023-04-19T03:36:39;6.50;99.90
57108;DHT22;42987;52.916;6.542;2023-04-19T03:39:06;6.50;99.90
57108;DHT22;42987;52.916;6.542;2023-04-19T03:41:32;6.40;99.90
57108;DHT22;42987;52.916;6.542;2023-04-19T03:43:58;6.40;99.90
57108;DHT22;42987;52.916;6.542;2023-04-19T03:46:24;6.50;99.90
57108;DHT22;42987;52.916;6.542;2023-04-19T03:48:50;6.40;99.90
57108;DHT22;42987;52.916;6.542;2023-04-19T03:51:17;6.40;99.90
57108;DHT22;42987;52.916;6.542;2023-04-19T03:53:42;6.40;99.90
57108;DHT22;42987;52.916;6.542;2023-04-19T03:56:08;6.40;99.90
57108;DHT22;42987;52.916;6.542;2023-04-19T03:58:34;6.40;99.90
57108;DHT22;42987;52.916;6.542;2023-04-19T04:01:00;6.40;99.90
57108;DHT22;42987;52.916;6.542;2023-04-19T04:03:26;6.30;99.90
57108;DHT22;42987;52.916;6.542;2023-04-19T04:05:52;6.30;99.90
57108;DHT22;42987;52.916;6.542;2023-04-19T04:08:17;6.20;99.90
57108;DHT22;42987;52.916;6.542;2023-04-19T04:10:43;6.20;99.90
57108;DHT22;42987;52.916;6.542;2023-04-19T04:13:09;6.20;99.90
57108;DHT22;42987;52.916;6.542;2023-04-19T04:15:35;6.10;99.90
57108;DHT22;42987;52.916;6.542;2023-04-19T04:18:01;6.10;99.90
57108;DHT22;42987;52.916;6.542;2023-04-19T04:20:26;6.20;99.90
57108;DHT22;42987;52.916;6.542;2023-04-19T04:22:52;6.10;99.90
57108;DHT22;42987;52.916;6.542;2023-04-19T04:25:18;6.00;99.90
57108;DHT22;42987;52.916;6.542;2023-04-19T04:27:44;6.00;99.90
57108;DHT22;42987;52.916;6.542;2023-04-19T04:30:10;6.00;99.90
57108;DHT22;42987;52.916;6.542;2023-04-19T04:32:37;5.90;99.90
57108;DHT22;42987;52.916;6.542;2023-04-19T04:35:06;5.90;99.90
57108;DHT22;42987;52.916;6.542;2023-04-19T04:37:32;5.80;99.90
57108;DHT22;42987;52.916;6.542;2023-04-19T04:39:59;5.70;99.90
57108;DHT22;42987;52.916;6.542;2023-04-19T04:42:26;5.80;99.90
57108;DHT22;42987;52.916;6.542;2023-04-19T04:44:52;5.80;99.90
57108;DHT22;42987;52.916;6.542;2023-04-19T04:47:22;5.80;99.90
57108;DHT22;42987;52.916;6.542;2023-04-19T04:49:51;5.70;99.90
57108;DHT22;42987;52.916;6.542;2023-04-19T04:52:18;5.70;99.90
57108;DHT22;42987;52.916;6.542;2023-04-19T04:54:46;5.70;99.90
57108;DHT22;42987;52.916;6.542;2023-04-19T04:57:12;5.70;99.90
57108;DHT22;42987;52.916;6.542;2023-04-19T04:59:37;5.70;99.90
57108;DHT22;42987;52.916;6.542;2023-04-19T05:02:03;5.70;99.90
57108;DHT22;42987;52.916;6.542;2023-04-19T05:04:29;5.70;99.90
57108;DHT22;42987;52.916;6.542;2023-04-19T05:06:55;5.70;99.90
57108;DHT22;42987;52.916;6.542;2023-04-19T05:09:23;5.70;99.90
57108;DHT22;42987;52.916;6.542;2023-04-19T05:11:49;5.70;99.90
57108;DHT22;42987;52.916;6.542;2023-04-19T05:14:15;5.70;99.90
57108;DHT22;42987;52.916;6.542;2023-04-19T05:16:41;5.70;99.90
57108;DHT22;42987;52.916;6.542;2023-04-19T05:19:07;5.70;99.90
57108;DHT22;42987;52.916;6.542;2023-04-19T05:21:33;5.80;99.90
57108;DHT22;42987;52.916;6.542;2023-04-19T05:23:59;5.80;99.90
57108;DHT22;42987;52.916;6.542;2023-04-19T05:26:25;5.80;99.90
57108;DHT22;42987;52.916;6.542;2023-04-19T05:28:51;5.90;99.90
57108;DHT22;42987;52.916;6.542;2023-04-19T05:31:16;5.90;99.90
57108;DHT22;42987;52.916;6.542;2023-04-19T05:33:42;6.00;99.90
57108;DHT22;42987;52.916;6.542;2023-04-19T05:36:08;6.00;99.90
57108;DHT22;42987;52.916;6.542;2023-04-19T05:38:34;6.00;99.90
57108;DHT22;42987;52.916;6.542;2023-04-19T05:41:01;6.10;99.90
57108;DHT22;42987;52.916;6.542;2023-04-19T05:43:27;6.20;99.90
57108;DHT22;42987;52.916;6.542;2023-04-19T05:45:52;6.20;99.90
57108;DHT22;42987;52.916;6.542;2023-04-19T05:48:18;6.30;99.90
57108;DHT22;42987;52.916;6.542;2023-04-19T05:50:44;6.30;99.90
57108;DHT22;42987;52.916;6.542;2023-04-19T05:53:10;6.40;99.90
57108;DHT22;42987;52.916;6.542;2023-04-19T05:55:36;6.40;99.90
57108;DHT22;42987;52.916;6.542;2023-04-19T05:58:01;6.50;99.90
57108;DHT22;42987;52.916;6.542;2023-04-19T06:00:27;6.50;99.90
57108;DHT22;42987;52.916;6.542;2023-04-19T06:02:54;6.60;99.90
57108;DHT22;42987;52.916;6.542;2023-04-19T06:05:19;6.70;99.90
57108;DHT22;42987;52.916;6.542;2023-04-19T06:07:45;6.80;99.90
57108;DHT22;42987;52.916;6.542;2023-04-19T06:10:11;6.90;99.90
57108;DHT22;42987;52.916;6.542;2023-04-19T06:12:37;6.90;99.90
57108;DHT22;42987;52.916;6.542;2023-04-19T06:15:06;7.00;99.90
57108;DHT22;42987;52.916;6.542;2023-04-19T06:17:33;7.10;99.90
57108;DHT22;42987;52.916;6.542;2023-04-19T06:19:58;7.20;99.90
57108;DHT22;42987;52.916;6.542;2023-04-19T06:22:27;7.30;99.90
57108;DHT22;42987;52.916;6.542;2023-04-19T06:24:53;7.30;99.90
57108;DHT22;42987;52.916;6.542;2023-04-19T06:27:19;7.50;99.90
57108;DHT22;42987;52.916;6.542;2023-04-19T06:29:45;7.50;99.90
57108;DHT22;42987;52.916;6.542;2023-04-19T06:32:10;7.60;99.90
57108;DHT22;42987;52.916;6.542;2023-04-19T06:34:36;7.70;99.90
57108;DHT22;42987;52.916;6.542;2023-04-19T06:37:02;7.80;99.00
57108;DHT22;42987;52.916;6.542;2023-04-19T06:39:28;7.80;99.10
57108;DHT22;42987;52.916;6.542;2023-04-19T06:41:54;7.80;98.40
57108;DHT22;42987;52.916;6.542;2023-04-19T06:44:19;7.90;97.80
57108;DHT22;42987;52.916;6.542;2023-04-19T06:46:45;8.00;97.10
57108;DHT22;42987;52.916;6.542;2023-04-19T06:49:11;8.00;97.70
57108;DHT22;42987;52.916;6.542;2023-04-19T06:51:38;8.10;97.40
57108;DHT22;42987;52.916;6.542;2023-04-19T06:54:04;8.30;96.00
57108;DHT22;42987;52.916;6.542;2023-04-19T06:56:47;8.30;95.90
57108;DHT22;42987;52.916;6.542;2023-04-19T06:59:16;8.40;95.10
57108;DHT22;42987;52.916;6.542;2023-04-19T07:01:42;8.40;95.30
57108;DHT22;42987;52.916;6.542;2023-04-19T07:04:09;8.50;93.40
57108;DHT22;42987;52.916;6.542;2023-04-19T07:06:35;8.60;93.50
57108;DHT22;42987;52.916;6.542;2023-04-19T07:09:01;8.60;92.60
57108;DHT22;42987;52.916;6.542;2023-04-19T07:11:28;8.70;92.30
57108;DHT22;42987;52.916;6.542;2023-04-19T07:13:54;8.80;91.20
57108;DHT22;42987;52.916;6.542;2023-04-19T07:16:20;8.90;91.20
57108;DHT22;42987;52.916;6.542;2023-04-19T07:18:46;8.90;91.80
57108;DHT22;42987;52.916;6.542;2023-04-19T07:21:12;9.00;90.70
57108;DHT22;42987;52.916;6.542;2023-04-19T07:23:39;9.10;89.20
57108;DHT22;42987;52.916;6.542;2023-04-19T07:26:05;9.20;87.00
57108;DHT22;42987;52.916;6.542;2023-04-19T07:28:32;9.20;88.60
57108;DHT22;42987;52.916;6.542;2023-04-19T07:30:58;9.30;85.50
57108;DHT22;42987;52.916;6.542;2023-04-19T07:33:25;9.30;86.70
57108;DHT22;42987;52.916;6.542;2023-04-19T07:35:51;9.40;87.00
57108;DHT22;42987;52.916;6.542;2023-04-19T07:38:17;9.50;85.90
57108;DHT22;42987;52.916;6.542;2023-04-19T07:40:43;9.50;86.00
57108;DHT22;42987;52.916;6.542;2023-04-19T07:43:09;9.60;85.20
57108;DHT22;42987;52.916;6.542;2023-04-19T07:45:36;9.70;83.50
57108;DHT22;42987;52.916;6.542;2023-04-19T07:48:01;9.80;83.40
57108;DHT22;42987;52.916;6.542;2023-04-19T07:50:27;9.80;81.30
57108;DHT22;42987;52.916;6.542;2023-04-19T07:52:56;9.90;82.60
57108;DHT22;42987;52.916;6.542;2023-04-19T07:55:22;10.00;82.90
57108;DHT22;42987;52.916;6.542;2023-04-19T07:57:48;10.10;82.80
57108;DHT22;42987;52.916;6.542;2023-04-19T08:00:15;10.20;79.20
57108;DHT22;42987;52.916;6.542;2023-04-19T08:02:45;10.30;78.20
57108;DHT22;42987;52.916;6.542;2023-04-19T08:05:12;10.40;76.10
57108;DHT22;42987;52.916;6.542;2023-04-19T08:07:41;10.40;77.30
57108;DHT22;42987;52.916;6.542;2023-04-19T08:10:07;10.50;74.50
57108;DHT22;42987;52.916;6.542;2023-04-19T08:12:33;10.60;74.50
57108;DHT22;42987;52.916;6.542;2023-04-19T08:14:59;10.70;72.00
57108;DHT22;42987;52.916;6.542;2023-04-19T08:17:26;10.80;74.30
57108;DHT22;42987;52.916;6.542;2023-04-19T08:19:51;10.90;74.00
57108;DHT22;42987;52.916;6.542;2023-04-19T08:22:18;10.90;71.20
57108;DHT22;42987;52.916;6.542;2023-04-19T08:24:44;11.00;71.00
57108;DHT22;42987;52.916;6.542;2023-04-19T08:27:10;11.10;71.40
57108;DHT22;42987;52.916;6.542;2023-04-19T08:29:36;11.10;71.60
57108;DHT22;42987;52.916;6.542;2023-04-19T08:32:10;11.20;72.70
57108;DHT22;42987;52.916;6.542;2023-04-19T08:34:37;11.40;71.50
57108;DHT22;42987;52.916;6.542;2023-04-19T08:37:03;11.50;69.60
57108;DHT22;42987;52.916;6.542;2023-04-19T08:39:32;11.50;70.40
57108;DHT22;42987;52.916;6.542;2023-04-19T08:42:08;11.60;68.80
57108;DHT22;42987;52.916;6.542;2023-04-19T08:44:35;11.60;69.30
57108;DHT22;42987;52.916;6.542;2023-04-19T08:47:04;11.60;70.40
57108;DHT22;42987;52.916;6.542;2023-04-19T08:49:34;11.80;68.90
57108;DHT22;42987;52.916;6.542;2023-04-19T08:52:03;11.80;68.10
57108;DHT22;42987;52.916;6.542;2023-04-19T08:54:31;11.80;64.20
57108;DHT22;42987;52.916;6.542;2023-04-19T08:57:00;11.80;66.10
57108;DHT22;42987;52.916;6.542;2023-04-19T08:59:27;11.90;66.20
57108;DHT22;42987;52.916;6.542;2023-04-19T09:01:59;12.20;64.70
57108;DHT22;42987;52.916;6.542;2023-04-19T09:04:25;12.20;65.70
57108;DHT22;42987;52.916;6.542;2023-04-19T09:06:51;12.30;66.40
57108;DHT22;42987;52.916;6.542;2023-04-19T09:09:22;12.40;65.40
57108;DHT22;42987;52.916;6.542;2023-04-19T09:11:48;12.40;63.40
57108;DHT22;42987;52.916;6.542;2023-04-19T09:14:19;12.40;62.30
57108;DHT22;42987;52.916;6.542;2023-04-19T09:16:45;12.40;61.80
57108;DHT22;42987;52.916;6.542;2023-04-19T09:19:11;12.40;63.40
57108;DHT22;42987;52.916;6.542;2023-04-19T09:21:38;12.50;63.90
57108;DHT22;42987;52.916;6.542;2023-04-19T09:24:05;12.70;63.20
57108;DHT22;42987;52.916;6.542;2023-04-19T09:26:31;12.80;59.90
57108;DHT22;42987;52.916;6.542;2023-04-19T09:28:59;12.70;60.90
57108;DHT22;42987;52.916;6.542;2023-04-19T09:31:27;12.70;59.00
57108;DHT22;42987;52.916;6.542;2023-04-19T09:33:57;12.80;59.10
57108;DHT22;42987;52.916;6.542;2023-04-19T09:36:30;12.90;58.30
57108;DHT22;42987;52.916;6.542;2023-04-19T09:38:57;12.90;57.80
57108;DHT22;42987;52.916;6.542;2023-04-19T09:41:26;13.00;58.00
57108;DHT22;42987;52.916;6.542;2023-04-19T09:43:52;13.00;58.60
57108;DHT22;42987;52.916;6.542;2023-04-19T09:46:32;13.00;59.50
57108;DHT22;42987;52.916;6.542;2023-04-19T09:51:43;13.00;57.60
57108;DHT22;42987;52.916;6.542;2023-04-19T09:54:11;13.00;57.40
57108;DHT22;42987;52.916;6.542;2023-04-19T09:56:37;13.00;59.10
57108;DHT22;42987;52.916;6.542;2023-04-19T09:59:07;13.20;60.30
57108;DHT22;42987;52.916;6.542;2023-04-19T10:01:38;13.30;59.90
57108;DHT22;42987;52.916;6.542;2023-04-19T10:04:04;13.40;59.90
57108;DHT22;42987;52.916;6.542;2023-04-19T10:06:31;13.50;60.70
57108;DHT22;42987;52.916;6.542;2023-04-19T10:09:00;13.60;57.20
57108;DHT22;42987;52.916;6.542;2023-04-19T10:11:34;13.70;56.80
57108;DHT22;42987;52.916;6.542;2023-04-19T10:14:09;13.70;55.60
57108;DHT22;42987;52.916;6.542;2023-04-19T10:16:36;13.70;56.30
57108;DHT22;42987;52.916;6.542;2023-04-19T10:19:10;13.80;57.70
57108;DHT22;42987;52.916;6.542;2023-04-19T10:21:37;14.00;57.70
57108;DHT22;42987;52.916;6.542;2023-04-19T10:24:03;13.90;54.80
57108;DHT22;42987;52.916;6.542;2023-04-19T10:26:30;13.90;53.80
57108;DHT22;42987;52.916;6.542;2023-04-19T10:32:26;14.00;51.80
57108;DHT22;42987;52.916;6.542;2023-04-19T10:34:52;14.20;50.70
57108;DHT22;42987;52.916;6.542;2023-04-19T10:37:26;14.20;51.50
57108;DHT22;42987;52.916;6.542;2023-04-19T10:39:52;14.20;50.90
57108;DHT22;42987;52.916;6.542;2023-04-19T10:42:18;14.10;49.90
57108;DHT22;42987;52.916;6.542;2023-04-19T10:47:48;14.20;51.90
57108;DHT22;42987;52.916;6.542;2023-04-19T10:50:16;14.20;51.70
57108;DHT22;42987;52.916;6.542;2023-04-19T10:52:42;14.20;51.90
57108;DHT22;42987;52.916;6.542;2023-04-19T10:55:08;14.20;52.60
57108;DHT22;42987;52.916;6.542;2023-04-19T10:58:02;14.30;52.20
57108;DHT22;42987;52.916;6.542;2023-04-19T11:00:31;14.30;51.70
57108;DHT22;42987;52.916;6.542;2023-04-19T11:06:16;14.50;50.70
57108;DHT22;42987;52.916;6.542;2023-04-19T11:08:44;14.50;51.40
57108;DHT22;42987;52.916;6.542;2023-04-19T11:11:12;14.60;51.60
57108;DHT22;42987;52.916;6.542;2023-04-19T11:13:42;14.50;51.60
57108;DHT22;42987;52.916;6.542;2023-04-19T11:16:08;14.40;51.60
57108;DHT22;42987;52.916;6.542;2023-04-19T11:18:34;14.40;52.90
57108;DHT22;42987;52.916;6.542;2023-04-19T11:21:00;14.50;52.80
57108;DHT22;42987;52.916;6.542;2023-04-19T11:23:26;14.70;52.90
57108;DHT22;42987;52.916;6.542;2023-04-19T11:25:52;14.80;52.30
57108;DHT22;42987;52.916;6.542;2023-04-19T11:28:18;14.80;53.10
57108;DHT22;42987;52.916;6.542;2023-04-19T11:30:47;14.80;51.10
57108;DHT22;42987;52.916;6.542;2023-04-19T11:33:12;14.80;52.20
57108;DHT22;42987;52.916;6.542;2023-04-19T11:35:38;14.80;50.80
57108;DHT22;42987;52.916;6.542;2023-04-19T11:38:05;14.80;52.30
57108;DHT22;42987;52.916;6.542;2023-04-19T11:40:32;14.80;52.20
57108;DHT22;42987;52.916;6.542;2023-04-19T11:42:59;14.80;52.30
57108;DHT22;42987;52.916;6.542;2023-04-19T11:45:36;14.80;52.70
57108;DHT22;42987;52.916;6.542;2023-04-19T11:48:07;14.90;53.00
57108;DHT22;42987;52.916;6.542;2023-04-19T11:50:44;14.80;53.50
57108;DHT22;42987;52.916;6.542;2023-04-19T12:01:03;14.80;53.20
57108;DHT22;42987;52.916;6.542;2023-04-19T12:03:32;14.70;55.20
57108;DHT22;42987;52.916;6.542;2023-04-19T12:05:59;14.90;54.80
57108;DHT22;42987;52.916;6.542;2023-04-19T12:08:35;14.90;55.60
57108;DHT22;42987;52.916;6.542;2023-04-19T12:11:02;14.90;54.40
57108;DHT22;42987;52.916;6.542;2023-04-19T12:13:28;14.90;54.20
57108;DHT22;42987;52.916;6.542;2023-04-19T12:15:58;14.90;55.90
57108;DHT22;42987;52.916;6.542;2023-04-19T12:18:24;15.00;55.90
57108;DHT22;42987;52.916;6.542;2023-04-19T12:20:51;15.00;55.80
57108;DHT22;42987;52.916;6.542;2023-04-19T12:23:18;15.00;55.50
57108;DHT22;42987;52.916;6.542;2023-04-19T12:25:47;15.10;54.50
57108;DHT22;42987;52.916;6.542;2023-04-19T12:28:14;15.00;54.80
57108;DHT22;42987;52.916;6.542;2023-04-19T12:30:41;15.00;55.00
57108;DHT22;42987;52.916;6.542;2023-04-19T12:33:07;15.10;56.00
57108;DHT22;42987;52.916;6.542;2023-04-19T12:35:34;15.00;54.20
57108;DHT22;42987;52.916;6.542;2023-04-19T12:38:00;15.00;55.70
57108;DHT22;42987;52.916;6.542;2023-04-19T12:40:27;14.90;53.80
57108;DHT22;42987;52.916;6.542;2023-04-19T12:42:54;14.90;54.40
57108;DHT22;42987;52.916;6.542;2023-04-19T12:45:20;14.90;55.40
57108;DHT22;42987;52.916;6.542;2023-04-19T12:47:47;14.90;55.80
57108;DHT22;42987;52.916;6.542;2023-04-19T12:50:14;14.90;55.70
57108;DHT22;42987;52.916;6.542;2023-04-19T12:52:40;14.90;54.20
57108;DHT22;42987;52.916;6.542;2023-04-19T12:55:06;14.80;53.60
57108;DHT22;42987;52.916;6.542;2023-04-19T12:57:32;14.70;55.80
57108;DHT22;42987;52.916;6.542;2023-04-19T12:59:58;14.80;56.20
57108;DHT22;42987;52.916;6.542;2023-04-19T13:02:24;15.00;55.80
57108;DHT22;42987;52.916;6.542;2023-04-19T13:04:50;14.90;55.50
57108;DHT22;42987;52.916;6.542;2023-04-19T13:07:16;14.90;56.80
57108;DHT22;42987;52.916;6.542;2023-04-19T13:09:42;14.90;57.50
57108;DHT22;42987;52.916;6.542;2023-04-19T13:12:08;15.00;58.70
57108;DHT22;42987;52.916;6.542;2023-04-19T13:14:33;15.00;56.00
57108;DHT22;42987;52.916;6.542;2023-04-19T13:16:59;14.90;56.50
57108;DHT22;42987;52.916;6.542;2023-04-19T13:19:26;14.90;57.90
57108;DHT22;42987;52.916;6.542;2023-04-19T13:21:51;15.10;56.90
57108;DHT22;42987;52.916;6.542;2023-04-19T13:24:17;15.20;57.30
57108;DHT22;42987;52.916;6.542;2023-04-19T13:26:43;15.30;57.70
57108;DHT22;42987;52.916;6.542;2023-04-19T13:29:12;15.40;58.40
57108;DHT22;42987;52.916;6.542;2023-04-19T13:31:38;15.50;57.80
57108;DHT22;42987;52.916;6.542;2023-04-19T13:34:04;15.50;58.70
57108;DHT22;42987;52.916;6.542;2023-04-19T13:36:30;15.60;58.30
57108;DHT22;42987;52.916;6.542;2023-04-19T13:38:59;15.70;57.80
57108;DHT22;42987;52.916;6.542;2023-04-19T13:41:28;15.60;56.90
57108;DHT22;42987;52.916;6.542;2023-04-19T13:43:54;15.40;57.10
57108;DHT22;42987;52.916;6.542;2023-04-19T13:46:20;15.30;58.40
57108;DHT22;42987;52.916;6.542;2023-04-19T13:48:46;15.30;58.30
57108;DHT22;42987;52.916;6.542;2023-04-19T13:51:11;15.30;57.30
57108;DHT22;42987;52.916;6.542;2023-04-19T13:53:37;15.20;56.90
57108;DHT22;42987;52.916;6.542;2023-04-19T13:56:05;15.10;56.50
57108;DHT22;42987;52.916;6.542;2023-04-19T13:58:34;15.10;56.50
57108;DHT22;42987;52.916;6.542;2023-04-19T14:01:00;15.00;55.50
57108;DHT22;42987;52.916;6.542;2023-04-19T14:03:26;15.10;57.00
57108;DHT22;42987;52.916;6.542;2023-04-19T14:05:52;15.20;58.10
57108;DHT22;42987;52.916;6.542;2023-04-19T14:08:17;15.40;59.70
57108;DHT22;42987;52.916;6.542;2023-04-19T14:10:43;15.60;55.80
57108;DHT22;42987;52.916;6.542;2023-04-19T14:13:09;15.50;54.50
57108;DHT22;42987;52.916;6.542;2023-04-19T14:15:35;15.30;54.60
57108;DHT22;42987;52.916;6.542;2023-04-19T14:18:01;15.20;55.10
57108;DHT22;42987;52.916;6.542;2023-04-19T14:20:27;15.30;54.30
57108;DHT22;42987;52.916;6.542;2023-04-19T14:22:52;15.20;54.80
57108;DHT22;42987;52.916;6.542;2023-04-19T14:25:20;15.10;56.80
57108;DHT22;42987;52.916;6.542;2023-04-19T14:27:46;15.30;54.70
57108;DHT22;42987;52.916;6.542;2023-04-19T14:30:12;15.30;55.30
57108;DHT22;42987;52.916;6.542;2023-04-19T14:32:38;15.40;55.20
57108;DHT22;42987;52.916;6.542;2023-04-19T14:35:04;15.50;54.60
57108;DHT22;42987;52.916;6.542;2023-04-19T14:37:30;15.40;55.30
57108;DHT22;42987;52.916;6.542;2023-04-19T14:39:56;15.50;54.40
57108;DHT22;42987;52.916;6.542;2023-04-19T14:42:22;15.60;54.50
57108;DHT22;42987;52.916;6.542;2023-04-19T14:44:51;15.50;54.80
57108;DHT22;42987;52.916;6.542;2023-04-19T14:47:18;15.30;55.10
57108;DHT22;42987;52.916;6.542;2023-04-19T14:49:43;15.10;54.70
57108;DHT22;42987;52.916;6.542;2023-04-19T14:52:09;15.00;55.50
57108;DHT22;42987;52.916;6.542;2023-04-19T14:54:35;15.00;55.40
57108;DHT22;42987;52.916;6.542;2023-04-19T14:57:02;14.90;55.80
57108;DHT22;42987;52.916;6.542;2023-04-19T14:59:28;14.90;55.00
57108;DHT22;42987;52.916;6.542;2023-04-19T15:01:54;14.80;55.20
57108;DHT22;42987;52.916;6.542;2023-04-19T15:04:20;14.90;55.10
57108;DHT22;42987;52.916;6.542;2023-04-19T15:06:46;15.10;55.90
57108;DHT22;42987;52.916;6.542;2023-04-19T15:09:12;15.10;54.80
57108;DHT22;42987;52.916;6.542;2023-04-19T15:11:38;14.90;55.20
57108;DHT22;42987;52.916;6.542;2023-04-19T15:14:03;14.90;53.90
57108;DHT22;42987;52.916;6.542;2023-04-19T15:16:30;14.90;54.30
57108;DHT22;42987;52.916;6.542;2023-04-19T15:18:56;14.80;55.50
57108;DHT22;42987;52.916;6.542;2023-04-19T15:21:22;15.00;55.00
57108;DHT22;42987;52.916;6.542;2023-04-19T15:23:48;15.00;55.10
57108;DHT22;42987;52.916;6.542;2023-04-19T15:26:14;14.80;54.30
57108;DHT22;42987;52.916;6.542;2023-04-19T15:28:39;14.80;54.80
57108;DHT22;42987;52.916;6.542;2023-04-19T15:31:06;14.80;54.00
57108;DHT22;42987;52.916;6.542;2023-04-19T15:33:34;14.70;53.10
57108;DHT22;42987;52.916;6.542;2023-04-19T15:36:00;14.70;54.20
57108;DHT22;42987;52.916;6.542;2023-04-19T15:38:28;14.70;54.40
57108;DHT22;42987;52.916;6.542;2023-04-19T15:40:56;14.70;53.50
57108;DHT22;42987;52.916;6.542;2023-04-19T15:43:23;14.80;54.60
57108;DHT22;42987;52.916;6.542;2023-04-19T15:45:49;14.90;54.00
57108;DHT22;42987;52.916;6.542;2023-04-19T15:48:15;14.90;54.70
57108;DHT22;42987;52.916;6.542;2023-04-19T15:50:41;15.00;53.60
57108;DHT22;42987;52.916;6.542;2023-04-19T15:53:07;14.80;52.40
57108;DHT22;42987;52.916;6.542;2023-04-19T15:55:34;14.70;52.70